Time;durP1;ratioP1;P1;durP2;ratioP2;P2;SDS_P1;SDS_P2;PMS_P1;PMS_P2;Temp;Humidity;BMP_temperature;BMP_pressure;BME280_temperature;BME280_humidity;BME280_pressure;Samples;Min_cycle;Max_cycle;Signal;HPM_P1;HPM_P2
2023/03/12 00:00:18;;;;;;;19.30;11.45;;;7.10;99.90;;;;;;5099889;28;20046;-43
2023/03/12 00:02:44;;;;;;;19.35;11.63;;;7.20;99.90;;;;;;5098863;27;20107;-47
2023/03/12 00:05:10;;;;;;;20.17;11.75;;;7.20;99.90;;;;;;5105224;27;20162;-43
2023/03/12 00:07:35;;;;;;;21.55;12.07;;;7.10;99.90;;;;;;5100577;27;20388;-43
2023/03/12 00:10:06;;;;;;;19.38;11.85;;;7.10;99.90;;;;;;5111188;28;20102;-46
2023/03/12 00:12:31;;;;;;;19.45;11.75;;;7.10;99.90;;;;;;5105914;28;20035;-43
2023/03/12 00:14:57;;;;;;;20.23;12.07;;;7.10;99.90;;;;;;5109101;28;20028;-46
2023/03/12 00:17:23;;;;;;;21.50;12.40;;;7.10;99.90;;;;;;5103591;28;20012;-43
2023/03/12 00:19:52;;;;;;;19.52;11.48;;;7.10;99.90;;;;;;5105356;28;20024;-43
2023/03/12 00:22:21;;;;;;;22.83;12.43;;;7.10;99.90;;;;;;5095012;28;20095;-48
2023/03/12 00:24:50;;;;;;;25.05;12.65;;;7.10;99.90;;;;;;5096243;28;20483;-45
2023/03/12 00:27:16;;;;;;;18.85;11.38;;;7.10;99.90;;;;;;5100135;28;20031;-47
2023/03/12 00:29:42;;;;;;;20.52;11.73;;;7.10;99.90;;;;;;5095856;28;20028;-43
2023/03/12 00:32:08;;;;;;;26.42;11.63;;;7.20;99.90;;;;;;5103383;28;20036;-46
2023/03/12 00:34:33;;;;;;;22.10;11.30;;;7.10;99.90;;;;;;5110871;28;20081;-44
2023/03/12 00:36:59;;;;;;;21.40;11.77;;;7.10;99.90;;;;;;5104715;27;20411;-45
2023/03/12 00:39:24;;;;;;;20.55;11.88;;;7.20;99.90;;;;;;5111152;27;20379;-49
2023/03/12 00:41:50;;;;;;;18.95;10.85;;;7.10;99.90;;;;;;5105909;28;20024;-53
2023/03/12 00:44:17;;;;;;;20.75;11.23;;;7.20;99.90;;;;;;5097267;28;20078;-50
2023/03/12 00:46:42;;;;;;;22.30;11.23;;;7.20;99.90;;;;;;5098713;27;20511;-46
2023/03/12 00:49:08;;;;;;;19.98;10.77;;;7.30;99.90;;;;;;5092791;28;20029;-45
2023/03/12 00:51:34;;;;;;;23.45;10.60;;;7.30;99.90;;;;;;5103032;27;20049;-46
2023/03/12 00:53:59;;;;;;;23.40;11.68;;;7.40;99.90;;;;;;5106813;28;20456;-44
2023/03/12 00:56:25;;;;;;;22.90;12.07;;;7.40;99.90;;;;;;5098593;27;20019;-43
2023/03/12 00:58:50;;;;;;;21.38;10.52;;;7.40;99.90;;;;;;5099497;28;20031;-43
2023/03/12 01:01:16;;;;;;;19.00;11.00;;;7.40;99.90;;;;;;5113115;27;20098;-42
2023/03/12 01:03:42;;;;;;;21.50;10.43;;;7.50;99.90;;;;;;5111031;28;20052;-43
2023/03/12 01:06:08;;;;;;;22.15;11.75;;;7.50;99.90;;;;;;5102679;27;20039;-45
2023/03/12 01:08:34;;;;;;;21.90;10.50;;;7.50;99.90;;;;;;5096764;27;20410;-41
2023/03/12 01:10:59;;;;;;;21.80;10.73;;;7.60;99.90;;;;;;5108586;27;20049;-43
2023/03/12 01:13:26;;;;;;;20.70;11.15;;;7.60;99.90;;;;;;5102038;28;20019;-43
2023/03/12 01:15:51;;;;;;;26.92;11.23;;;7.50;99.90;;;;;;5095342;28;20042;-43
2023/03/12 01:18:17;;;;;;;22.10;10.45;;;7.60;99.90;;;;;;5101296;28;20388;-43
2023/03/12 01:20:42;;;;;;;21.10;9.65;;;7.60;99.90;;;;;;5109512;28;20039;-43
2023/03/12 01:23:08;;;;;;;24.73;9.30;;;7.70;99.90;;;;;;5101355;28;20023;-45
2023/03/12 01:25:35;;;;;;;24.83;10.38;;;7.70;99.90;;;;;;5101873;28;20457;-44
2023/03/12 01:28:01;;;;;;;19.33;8.60;;;7.70;99.90;;;;;;5093213;28;20099;-43
2023/03/12 01:30:27;;;;;;;17.27;8.95;;;7.80;99.90;;;;;;5110168;28;20111;-44
2023/03/12 01:32:52;;;;;;;16.58;8.55;;;7.80;99.90;;;;;;5110391;28;20016;-46
2023/03/12 01:35:18;;;;;;;24.95;9.07;;;7.80;99.90;;;;;;5095930;28;20081;-46
2023/03/12 01:37:44;;;;;;;24.10;9.63;;;7.90;99.90;;;;;;5095971;28;20056;-44
2023/03/12 01:40:20;;;;;;;18.58;9.05;;;7.90;99.90;;;;;;5095179;28;20016;-43
2023/03/12 01:42:53;;;;;;;20.70;9.13;;;7.90;99.90;;;;;;5102958;27;20099;-46
2023/03/12 01:45:56;;;;;;;24.48;8.38;;;7.90;99.90;;;;;;5102507;28;20026;-50
2023/03/12 01:48:22;;;;;;;23.23;7.43;;;7.90;99.90;;;;;;5091365;28;20482;-45
2023/03/12 01:50:48;;;;;;;22.20;7.97;;;8.00;99.90;;;;;;5099203;28;20031;-43
2023/03/12 01:53:14;;;;;;;29.73;8.00;;;8.10;99.90;;;;;;5090024;28;20472;-46
2023/03/12 01:55:40;;;;;;;38.33;9.10;;;8.10;99.90;;;;;;5097998;28;20034;-47
2023/03/12 01:58:06;;;;;;;27.88;8.50;;;8.20;99.90;;;;;;5093970;28;20028;-43
2023/03/12 02:00:32;;;;;;;30.77;8.90;;;8.30;99.90;;;;;;5096990;28;20023;-46
2023/03/12 02:03:03;;;;;;;31.13;7.95;;;8.30;99.90;;;;;;5106475;28;20016;-48
2023/03/12 02:05:47;;;;;;;33.85;8.70;;;8.40;99.90;;;;;;5106117;28;20467;-44
2023/03/12 02:08:14;;;;;;;32.35;9.00;;;8.40;99.90;;;;;;5094208;28;20458;-44
2023/03/12 02:10:40;;;;;;;28.90;7.55;;;8.50;99.90;;;;;;5091040;28;20024;-44
2023/03/12 02:13:06;;;;;;;24.75;7.70;;;8.50;99.90;;;;;;5101509;27;20058;-40
2023/03/12 02:15:35;;;;;;;32.75;8.43;;;8.50;99.90;;;;;;5094504;28;20385;-43
2023/03/12 02:18:15;;;;;;;37.00;7.78;;;8.50;99.90;;;;;;5098014;28;20023;-43
2023/03/12 02:21:03;;;;;;;39.35;8.38;;;8.60;99.90;;;;;;5095906;28;20032;-41
2023/03/12 02:23:41;;;;;;;32.92;7.45;;;8.60;99.90;;;;;;5098237;28;20028;-43
2023/03/12 02:26:08;;;;;;;40.95;7.43;;;8.70;99.90;;;;;;5109412;28;20019;-46
2023/03/12 02:28:41;;;;;;;30.33;7.22;;;8.70;99.90;;;;;;5090750;28;20032;-48
2023/03/12 02:31:07;;;;;;;30.10;7.03;;;8.70;99.90;;;;;;5110932;28;20028;-43
2023/03/12 02:33:33;;;;;;;35.92;6.72;;;8.70;99.90;;;;;;5101451;28;20023;-47
2023/03/12 02:35:59;;;;;;;32.30;6.10;;;8.70;99.90;;;;;;5109400;28;20039;-43
2023/03/12 02:38:33;;;;;;;32.60;7.03;;;8.80;99.90;;;;;;5101673;28;20039;-49
2023/03/12 02:41:04;;;;;;;29.15;6.13;;;8.70;99.90;;;;;;5102365;28;20483;-45
2023/03/12 02:43:30;;;;;;;34.72;6.28;;;8.70;99.90;;;;;;5105507;28;20103;-48
2023/03/12 02:45:56;;;;;;;40.80;7.38;;;8.70;99.90;;;;;;5097886;27;20051;-45
2023/03/12 02:48:21;;;;;;;39.55;7.25;;;8.70;99.90;;;;;;5106183;28;20076;-43
2023/03/12 02:50:47;;;;;;;35.88;5.70;;;8.70;99.90;;;;;;5108254;28;20046;-47
2023/03/12 02:53:13;;;;;;;35.10;6.07;;;8.70;99.90;;;;;;5107216;28;20521;-42
2023/03/12 02:55:38;;;;;;;35.75;5.95;;;8.70;99.90;;;;;;5102993;28;20047;-46
2023/03/12 02:58:04;;;;;;;30.75;6.55;;;8.70;99.90;;;;;;5103515;28;20019;-44
2023/03/12 03:00:31;;;;;;;30.63;5.45;;;8.80;99.90;;;;;;5092952;28;20541;-45
2023/03/12 03:02:58;;;;;;;40.78;5.50;;;8.70;99.90;;;;;;5088420;28;20525;-45
2023/03/12 03:05:24;;;;;;;42.13;6.13;;;8.70;99.90;;;;;;5103625;28;20020;-50
2023/03/12 03:07:49;;;;;;;42.28;5.85;;;8.70;99.90;;;;;;5101034;28;20034;-45
2023/03/12 03:10:16;;;;;;;38.33;6.22;;;8.60;99.90;;;;;;5096759;28;20022;-50
2023/03/12 03:12:42;;;;;;;24.17;6.25;;;8.70;99.90;;;;;;5104732;28;20518;-42
2023/03/12 03:15:08;;;;;;;36.55;5.75;;;8.70;99.90;;;;;;5091498;28;20066;-44
2023/03/12 03:17:34;;;;;;;48.55;5.93;;;8.70;99.90;;;;;;5091528;28;20024;-42
2023/03/12 03:19:59;;;;;;;39.75;6.53;;;8.70;99.90;;;;;;5094316;28;20031;-44
2023/03/12 03:22:25;;;;;;;35.20;5.47;;;8.70;99.90;;;;;;5102742;28;20055;-42
2023/03/12 03:24:52;;;;;;;45.08;7.03;;;8.60;99.90;;;;;;5108027;28;20030;-45
2023/03/12 03:27:18;;;;;;;33.17;5.82;;;8.50;99.90;;;;;;5110675;28;20019;-42
2023/03/12 03:29:45;;;;;;;29.90;4.88;;;8.40;99.90;;;;;;5111903;28;20106;-42
2023/03/12 03:32:11;;;;;;;43.13;5.82;;;8.40;99.90;;;;;;5102741;28;20042;-42
2023/03/12 03:34:37;;;;;;;29.17;5.38;;;8.40;99.90;;;;;;5111161;28;20027;-44
2023/03/12 03:37:03;;;;;;;39.15;5.43;;;8.40;99.90;;;;;;5106706;28;20048;-45
2023/03/12 03:39:29;;;;;;;34.45;5.03;;;8.30;99.90;;;;;;5112540;28;20024;-53
2023/03/12 03:41:55;;;;;;;38.35;5.32;;;8.20;99.90;;;;;;5103253;27;20050;-47
2023/03/12 03:44:21;;;;;;;34.17;4.65;;;8.20;99.90;;;;;;5098107;28;20514;-45
2023/03/12 03:46:48;;;;;;;35.72;4.90;;;8.30;99.90;;;;;;5098689;28;20031;-43
2023/03/12 03:49:14;;;;;;;40.15;5.10;;;8.30;99.90;;;;;;5107554;28;20027;-51
2023/03/12 03:51:41;;;;;;;32.97;4.22;;;8.40;99.90;;;;;;5104085;28;20045;-42
2023/03/12 03:54:07;;;;;;;32.53;5.30;;;8.40;99.90;;;;;;5108610;27;20093;-42
2023/03/12 03:56:33;;;;;;;28.52;4.95;;;8.50;99.90;;;;;;5100402;28;20042;-42
2023/03/12 03:59:00;;;;;;;36.72;5.57;;;8.60;99.90;;;;;;5098173;28;20487;-42
2023/03/12 04:01:26;;;;;;;38.55;4.70;;;8.60;99.90;;;;;;5105293;28;20051;-46
2023/03/12 04:03:52;;;;;;;33.42;5.32;;;8.60;99.90;;;;;;5111956;28;20507;-49
2023/03/12 04:06:18;;;;;;;35.33;5.25;;;8.60;99.90;;;;;;5106509;28;20019;-42
2023/03/12 04:08:43;;;;;;;28.67;4.53;;;8.60;99.90;;;;;;5104928;28;20042;-42
2023/03/12 04:11:13;;;;;;;30.88;4.75;;;8.70;99.90;;;;;;5112457;27;20399;-43
2023/03/12 04:13:39;;;;;;;37.65;4.55;;;8.70;99.90;;;;;;5110067;27;20059;-44
2023/03/12 04:16:06;;;;;;;37.45;5.55;;;8.70;99.90;;;;;;5096401;27;20369;-45
2023/03/12 04:18:32;;;;;;;31.92;4.55;;;8.60;99.90;;;;;;5105656;28;20026;-42
2023/03/12 04:20:57;;;;;;;38.63;4.80;;;8.60;99.90;;;;;;5111090;28;20020;-52
2023/03/12 04:23:23;;;;;;;32.20;5.97;;;8.60;99.90;;;;;;5103698;28;20612;-42
2023/03/12 04:25:48;;;;;;;31.98;5.15;;;8.60;99.90;;;;;;5104058;28;20031;-46
2023/03/12 04:28:14;;;;;;;32.08;4.63;;;8.50;99.90;;;;;;5094999;28;20049;-42
2023/03/12 04:30:40;;;;;;;32.47;5.43;;;8.50;99.90;;;;;;5107849;28;20077;-45
2023/03/12 04:33:06;;;;;;;34.15;5.13;;;8.40;99.90;;;;;;5093109;28;20439;-44
2023/03/12 04:35:31;;;;;;;35.25;5.75;;;8.40;99.90;;;;;;5095872;28;20020;-43
2023/03/12 04:37:59;;;;;;;31.98;4.90;;;8.30;99.90;;;;;;5092416;28;20416;-51
2023/03/12 04:40:24;;;;;;;38.05;5.30;;;8.20;99.90;;;;;;5111223;28;20027;-50
2023/03/12 04:42:50;;;;;;;32.05;5.78;;;8.10;99.90;;;;;;5102354;27;20016;-47
2023/03/12 04:45:16;;;;;;;33.17;5.25;;;8.00;99.90;;;;;;5110308;28;20031;-53
2023/03/12 04:47:42;;;;;;;40.55;6.13;;;7.90;99.90;;;;;;5097448;28;20016;-51
2023/03/12 04:50:08;;;;;;;38.40;6.38;;;7.70;99.90;;;;;;5091972;28;20728;-51
2023/03/12 04:52:34;;;;;;;39.42;6.05;;;7.70;99.90;;;;;;5091967;28;20077;-50
2023/03/12 04:55:01;;;;;;;43.38;6.10;;;7.60;99.90;;;;;;5103621;27;20170;-53
2023/03/12 04:57:27;;;;;;;39.47;8.13;;;7.60;99.90;;;;;;5102279;27;20107;-48
2023/03/12 04:59:52;;;;;;;44.25;7.30;;;7.50;99.90;;;;;;5101001;27;20118;-46
2023/03/12 05:02:18;;;;;;;34.33;5.97;;;7.60;99.90;;;;;;5110636;27;20054;-51
2023/03/12 05:04:44;;;;;;;49.00;7.22;;;7.50;99.90;;;;;;5108816;27;20039;-48
2023/03/12 05:07:09;;;;;;;32.88;5.53;;;7.50;99.90;;;;;;5095396;28;20035;-42
2023/03/12 05:09:35;;;;;;;48.25;6.47;;;7.50;99.90;;;;;;5094564;28;20065;-52
2023/03/12 05:12:01;;;;;;;53.60;7.22;;;7.50;99.90;;;;;;5108774;27;20027;-46
2023/03/12 05:14:26;;;;;;;52.47;6.50;;;7.50;99.90;;;;;;5099726;28;20020;-53
2023/03/12 05:16:52;;;;;;;59.42;7.22;;;7.50;99.90;;;;;;5098935;28;20028;-46
2023/03/12 05:19:18;;;;;;;50.78;7.72;;;7.50;99.90;;;;;;5096881;28;20024;-44
2023/03/12 05:21:43;;;;;;;47.03;6.38;;;7.50;99.90;;;;;;5094444;28;20020;-43
2023/03/12 05:24:10;;;;;;;52.13;6.80;;;7.50;99.90;;;;;;5099860;28;20357;-42
2023/03/12 05:26:36;;;;;;;54.55;6.82;;;7.60;99.90;;;;;;5096729;28;20483;-43
2023/03/12 05:29:04;;;;;;;56.50;8.68;;;7.50;99.90;;;;;;5103912;28;20032;-42
2023/03/12 05:31:33;;;;;;;55.58;7.82;;;7.50;99.90;;;;;;5110302;28;20039;-42
2023/03/12 05:34:00;;;;;;;51.75;6.63;;;7.60;99.90;;;;;;5092325;28;20026;-44
2023/03/12 05:36:26;;;;;;;48.60;6.60;;;7.60;99.90;;;;;;5100557;28;20119;-44
2023/03/12 05:38:52;;;;;;;38.85;6.00;;;7.60;99.90;;;;;;5095041;28;20047;-46
2023/03/12 05:41:26;;;;;;;57.50;7.28;;;7.70;99.90;;;;;;5101347;27;20015;-44
2023/03/12 05:43:53;;;;;;;50.40;6.53;;;7.70;99.90;;;;;;5094310;28;20046;-42
2023/03/12 05:46:19;;;;;;;53.90;7.15;;;7.80;99.90;;;;;;5103095;28;20015;-42
2023/03/12 05:48:45;;;;;;;44.03;6.47;;;7.70;99.90;;;;;;5096640;28;20024;-42
2023/03/12 05:51:10;;;;;;;62.75;6.53;;;7.60;99.90;;;;;;5089597;28;20030;-42
2023/03/12 05:53:36;;;;;;;38.67;5.72;;;7.60;99.90;;;;;;5104357;28;20099;-42
2023/03/12 05:56:08;;;;;;;46.33;6.57;;;7.60;99.90;;;;;;5090339;28;20392;-42
2023/03/12 05:58:34;;;;;;;57.75;6.80;;;7.50;99.90;;;;;;5109358;28;20047;-42
2023/03/12 06:01:00;;;;;;;52.45;6.97;;;7.50;99.90;;;;;;5098196;28;20031;-42
2023/03/12 06:03:26;;;;;;;57.95;8.02;;;7.40;99.90;;;;;;5093950;28;20485;-42
2023/03/12 06:05:54;;;;;;;54.15;7.68;;;7.40;99.90;;;;;;5102497;28;20072;-42
2023/03/12 06:08:21;;;;;;;55.20;6.30;;;7.40;99.90;;;;;;5096170;28;20091;-42
2023/03/12 06:10:49;;;;;;;54.65;7.07;;;7.40;99.90;;;;;;5098336;27;20164;-42
2023/03/12 06:13:14;;;;;;;51.75;6.20;;;7.50;99.90;;;;;;5111244;27;20066;-42
2023/03/12 06:15:40;;;;;;;61.47;8.65;;;7.50;99.90;;;;;;5100699;28;20047;-47
2023/03/12 06:18:05;;;;;;;54.55;7.72;;;7.50;99.90;;;;;;5089602;28;20020;-43
2023/03/12 06:20:31;;;;;;;57.08;7.30;;;7.60;99.90;;;;;;5107623;28;20027;-47
2023/03/12 06:22:57;;;;;;;54.63;7.72;;;7.50;99.90;;;;;;5093036;28;20062;-43
2023/03/12 06:25:22;;;;;;;58.85;7.35;;;7.50;99.90;;;;;;5091198;28;20055;-45
2023/03/12 06:27:48;;;;;;;43.13;6.72;;;7.50;99.90;;;;;;5098758;28;20088;-51
2023/03/12 06:30:14;;;;;;;73.53;8.73;;;7.60;99.90;;;;;;5091738;28;20028;-46
2023/03/12 06:32:40;;;;;;;61.63;9.18;;;7.70;99.90;;;;;;5091752;28;20081;-46
2023/03/12 06:35:05;;;;;;;53.63;8.30;;;7.80;99.90;;;;;;5093046;28;20027;-43
2023/03/12 06:37:31;;;;;;;67.97;9.48;;;7.90;99.90;;;;;;5095138;28;20253;-45
2023/03/12 06:39:57;;;;;;;67.72;9.77;;;7.90;99.90;;;;;;5097221;28;20031;-48
2023/03/12 06:42:22;;;;;;;61.08;7.63;;;8.00;99.90;;;;;;5106477;27;20445;-43
2023/03/12 06:44:49;;;;;;;68.63;7.75;;;8.00;99.90;;;;;;5089913;28;20054;-42
2023/03/12 06:47:15;;;;;;;66.68;9.18;;;8.00;99.90;;;;;;5090576;28;20055;-42
2023/03/12 06:49:40;;;;;;;51.47;6.07;;;8.00;99.90;;;;;;5103561;28;20040;-42
2023/03/12 06:52:06;;;;;;;69.25;7.45;;;8.00;99.90;;;;;;5099757;28;20024;-43
2023/03/12 06:54:31;;;;;;;53.38;8.20;;;8.10;99.90;;;;;;5090499;28;20023;-42
2023/03/12 06:57:00;;;;;;;55.35;6.57;;;8.20;99.90;;;;;;5093546;28;20020;-42
2023/03/12 06:59:27;;;;;;;61.77;6.90;;;8.30;99.90;;;;;;5101353;28;20020;-45
2023/03/12 07:01:53;;;;;;;54.85;7.95;;;8.30;99.90;;;;;;5108041;28;20271;-42
2023/03/12 07:04:18;;;;;;;51.97;6.47;;;8.40;99.90;;;;;;5111551;28;20027;-43
2023/03/12 07:06:49;;;;;;;54.92;6.60;;;8.40;99.90;;;;;;5106326;28;20391;-43
2023/03/12 07:09:15;;;;;;;46.10;7.00;;;8.50;99.90;;;;;;5105142;28;20019;-43
2023/03/12 07:11:41;;;;;;;47.92;6.38;;;8.60;99.90;;;;;;5100197;27;20115;-44
2023/03/12 07:14:07;;;;;;;46.47;5.90;;;8.60;99.90;;;;;;5100371;28;20051;-42
2023/03/12 07:16:33;;;;;;;43.20;5.50;;;8.70;99.90;;;;;;5109379;27;20019;-45
2023/03/12 07:18:59;;;;;;;41.45;6.55;;;8.70;99.90;;;;;;5100855;28;20031;-43
2023/03/12 07:21:25;;;;;;;50.63;6.63;;;8.80;99.90;;;;;;5105710;27;20015;-44
2023/03/12 07:23:51;;;;;;;35.13;5.35;;;8.80;99.90;;;;;;5108127;28;20036;-46
2023/03/12 07:26:18;;;;;;;40.90;6.57;;;8.90;99.90;;;;;;5103249;28;20020;-47
2023/03/12 07:28:44;;;;;;;43.88;5.57;;;9.00;99.90;;;;;;5098716;27;20484;-45
2023/03/12 07:31:09;;;;;;;42.75;6.43;;;9.00;99.90;;;;;;5103185;27;20097;-42
2023/03/12 07:33:35;;;;;;;39.65;6.47;;;9.10;99.90;;;;;;5108756;27;20028;-52
2023/03/12 07:36:01;;;;;;;46.65;7.25;;;9.00;99.90;;;;;;5100817;27;20035;-43
2023/03/12 07:38:27;;;;;;;46.38;5.90;;;9.00;99.90;;;;;;5109511;28;20142;-51
2023/03/12 07:40:54;;;;;;;38.65;6.57;;;9.10;99.90;;;;;;5095205;28;20460;-43
2023/03/12 07:43:20;;;;;;;41.50;6.18;;;9.10;99.90;;;;;;5100967;28;20046;-48
2023/03/12 07:45:46;;;;;;;41.78;6.93;;;9.30;99.90;;;;;;5101609;28;20032;-45
2023/03/12 07:48:12;;;;;;;35.50;5.53;;;9.40;99.90;;;;;;5115252;27;20535;-42
2023/03/12 07:50:38;;;;;;;37.47;6.25;;;9.50;99.90;;;;;;5101159;27;20035;-42
2023/03/12 07:53:04;;;;;;;44.55;5.97;;;9.60;99.90;;;;;;5105112;27;20032;-44
2023/03/12 07:55:31;;;;;;;41.15;5.80;;;9.70;99.90;;;;;;5108276;28;20031;-43
2023/03/12 07:57:57;;;;;;;47.78;5.68;;;9.70;99.90;;;;;;5108370;27;20099;-51
2023/03/12 08:00:24;;;;;;;37.42;5.47;;;9.90;99.90;;;;;;5109238;28;20103;-48
2023/03/12 08:02:50;;;;;;;43.33;6.18;;;10.00;99.90;;;;;;5095707;27;20035;-44
2023/03/12 08:05:15;;;;;;;27.90;5.35;;;10.20;99.90;;;;;;5097643;28;20028;-42
2023/03/12 08:07:41;;;;;;;35.88;5.13;;;10.40;99.90;;;;;;5099694;27;20024;-42
2023/03/12 08:10:08;;;;;;;46.35;6.78;;;10.40;99.90;;;;;;5100359;28;20384;-48
2023/03/12 08:12:36;;;;;;;39.72;4.95;;;10.90;99.90;;;;;;5106328;27;20028;-43
2023/03/12 08:15:05;;;;;;;30.90;5.15;;;11.60;99.90;;;;;;5107084;27;20053;-47
2023/03/12 08:17:30;;;;;;;41.50;6.10;;;12.30;99.90;;;;;;5105756;27;20023;-43
2023/03/12 08:19:56;;;;;;;30.20;5.43;;;12.50;99.90;;;;;;5093686;27;20365;-44
2023/03/12 08:22:22;;;;;;;32.40;5.22;;;12.70;99.90;;;;;;5097701;28;20373;-45
2023/03/12 08:24:47;;;;;;;30.85;5.00;;;13.30;99.90;;;;;;5094642;28;20028;-45
2023/03/12 08:27:13;;;;;;;32.20;5.20;;;13.90;99.90;;;;;;5104404;27;20024;-43
2023/03/12 08:29:40;;;;;;;30.55;4.95;;;14.10;99.90;;;;;;5112554;28;20016;-48
2023/03/12 08:32:06;;;;;;;31.02;5.35;;;14.40;99.90;;;;;;5109983;27;20032;-43
2023/03/12 08:34:32;;;;;;;28.48;5.38;;;14.70;99.90;;;;;;5102853;28;20028;-47
2023/03/12 08:36:58;;;;;;;30.75;4.75;;;15.10;99.90;;;;;;5109174;27;20089;-43
2023/03/12 08:39:24;;;;;;;29.50;5.10;;;15.00;99.90;;;;;;5097861;28;20021;-43
2023/03/12 08:41:54;;;;;;;29.02;5.38;;;15.30;99.90;;;;;;5099047;27;20031;-43
2023/03/12 08:44:20;;;;;;;;;;;15.70;99.90;;;;;;5101343;28;20015;-48
2023/03/12 08:46:46;;;;;;;27.00;5.15;;;15.70;99.90;;;;;;5107723;27;19930;-49
2023/03/12 08:49:12;;;;;;;32.38;6.00;;;16.20;99.90;;;;;;5099478;28;20032;-43
2023/03/12 08:51:37;;;;;;;29.80;5.35;;;16.50;99.90;;;;;;5098951;27;20063;-43
2023/03/12 08:54:04;;;;;;;29.08;5.47;;;16.60;99.50;;;;;;5098521;28;20020;-50
2023/03/12 08:56:30;;;;;;;29.17;5.53;;;16.40;98.60;;;;;;5096042;27;20028;-43
2023/03/12 08:58:57;;;;;;;32.90;5.80;;;16.40;99.50;;;;;;5096575;27;20035;-43
2023/03/12 09:01:23;;;;;;;37.13;6.72;;;16.40;98.20;;;;;;5094760;27;20034;-43
2023/03/12 09:03:51;;;;;;;26.95;6.15;;;16.50;98.10;;;;;;5102468;27;20395;-43
2023/03/12 09:06:18;;;;;;;29.05;5.82;;;16.80;97.40;;;;;;5096210;27;20436;-45
2023/03/12 09:08:44;;;;;;;32.50;6.50;;;17.10;95.50;;;;;;5098665;28;20387;-45
2023/03/12 09:11:11;;;;;;;27.20;5.53;;;17.20;95.90;;;;;;5102809;27;20032;-43
2023/03/12 09:13:37;;;;;;;27.00;5.05;;;17.40;95.30;;;;;;5100658;28;20024;-43
2023/03/12 09:16:04;;;;;;;28.40;5.10;;;17.70;94.80;;;;;;5098754;27;20081;-42
2023/03/12 09:18:30;;;;;;;25.60;5.07;;;17.90;92.80;;;;;;5103488;27;20032;-42
2023/03/12 09:20:56;;;;;;;30.80;5.57;;;17.90;93.90;;;;;;5102405;27;20023;-45
2023/03/12 09:23:21;;;;;;;43.53;5.95;;;17.10;93.20;;;;;;5104568;27;20560;-48
2023/03/12 09:25:47;;;;;;;36.75;6.68;;;16.40;94.70;;;;;;5104773;28;20031;-43
2023/03/12 09:28:13;;;;;;;36.63;6.00;;;15.90;96.60;;;;;;5099071;28;20112;-49
2023/03/12 09:30:40;;;;;;;42.38;6.47;;;15.00;97.30;;;;;;5094940;28;20396;-43
2023/03/12 09:33:06;;;;;;;43.38;6.90;;;14.00;99.90;;;;;;5106530;28;20042;-47
2023/03/12 09:35:31;;;;;;;38.63;6.25;;;13.20;99.90;;;;;;5097092;28;20032;-46
2023/03/12 09:37:58;;;;;;;33.95;5.82;;;12.60;99.90;;;;;;5096056;28;20047;-42
2023/03/12 09:40:28;;;;;;;40.42;7.03;;;12.30;99.90;;;;;;5098274;28;20434;-41
2023/03/12 09:43:17;;;;;;;44.15;5.78;;;12.10;99.90;;;;;;5103183;28;20031;-45
2023/03/12 09:45:46;;;;;;;45.83;5.57;;;11.80;99.90;;;;;;5098575;28;20024;-43
2023/03/12 09:48:16;;;;;;;41.10;5.85;;;11.70;99.90;;;;;;5096216;28;20023;-41
2023/03/12 09:50:48;;;;;;;36.28;5.88;;;11.60;99.90;;;;;;5091168;28;20032;-41
2023/03/12 09:53:29;;;;;;;41.63;6.35;;;11.60;99.90;;;;;;5094808;28;20032;-41
2023/03/12 09:55:57;;;;;;;32.63;5.63;;;11.70;99.90;;;;;;5101493;27;20020;-49
2023/03/12 09:58:30;;;;;;;30.70;5.20;;;11.90;99.90;;;;;;5103350;27;20093;-50
2023/03/12 10:01:10;;;;;;;42.13;5.82;;;12.00;99.90;;;;;;5096987;28;20151;-49
2023/03/12 10:03:39;;;;;;;34.63;6.13;;;12.00;99.90;;;;;;5099450;28;20023;-42
2023/03/12 10:06:13;;;;;;;48.90;6.32;;;11.90;99.90;;;;;;5097404;28;20364;-41
2023/03/12 10:08:48;;;;;;;40.45;6.00;;;11.90;99.90;;;;;;5112701;27;20058;-42
2023/03/12 10:11:24;;;;;;;40.25;5.07;;;11.90;99.90;;;;;;5097225;28;20044;-44
2023/03/12 10:14:11;;;;;;;48.05;6.40;;;11.90;99.90;;;;;;5102784;28;20023;-46
2023/03/12 10:16:39;;;;;;;33.97;4.90;;;12.10;99.90;;;;;;5103514;28;20035;-42
2023/03/12 10:19:23;;;;;;;37.30;6.32;;;12.60;99.90;;;;;;5106841;28;20069;-47
2023/03/12 10:22:02;;;;;;;32.33;4.95;;;13.70;99.90;;;;;;5093602;27;20058;-43
2023/03/12 10:24:56;;;;;;;33.00;5.93;;;14.00;99.90;;;;;;5097259;27;20073;-42
2023/03/12 10:27:26;;;;;;;34.42;5.68;;;13.70;99.90;;;;;;5090498;27;20040;-42
2023/03/12 10:29:52;;;;;;;34.83;6.60;;;13.40;99.90;;;;;;5099234;28;20024;-47
2023/03/12 10:32:25;;;;;;;30.70;5.18;;;12.90;99.90;;;;;;5099326;28;20028;-45
2023/03/12 10:34:58;;;;;;;33.30;5.03;;;12.80;99.90;;;;;;5106744;28;20034;-43
2023/03/12 10:37:49;;;;;;;29.10;5.47;;;12.70;99.90;;;;;;5099639;28;20136;-47
2023/03/12 10:40:24;;;;;;;30.58;4.95;;;12.60;99.90;;;;;;5086684;28;20036;-42
2023/03/12 10:42:51;;;;;;;29.90;5.07;;;12.50;99.90;;;;;;5094456;28;20501;-50
2023/03/12 10:45:35;;;;;;;41.83;6.18;;;12.40;99.90;;;;;;5102248;28;20115;-46
2023/03/12 10:48:07;;;;;;;32.55;5.20;;;12.50;99.90;;;;;;5103757;28;20032;-42
2023/03/12 10:50:36;;;;;;;36.17;6.05;;;12.90;99.90;;;;;;5098562;28;20015;-41
2023/03/12 10:53:43;;;;;;;37.77;5.60;;;13.00;99.90;;;;;;5098792;28;20030;-49
2023/03/12 10:56:10;;;;;;;41.25;6.13;;;13.30;99.90;;;;;;5075244;28;20794;-41
2023/03/12 10:58:37;;;;;;;28.05;4.90;;;14.90;99.90;;;;;;5090834;28;20109;-43
2023/03/12 11:01:05;;;;;;;25.98;5.53;;;16.20;99.90;;;;;;5098478;28;20027;-46
2023/03/12 11:03:32;;;;;;;26.25;5.15;;;16.80;99.90;;;;;;5101409;28;20031;-42
2023/03/12 11:06:00;;;;;;;23.52;4.80;;;17.30;99.10;;;;;;5102327;28;20046;-42
2023/03/12 11:08:30;;;;;;;21.45;4.40;;;17.90;97.70;;;;;;5096894;28;20379;-41
2023/03/12 11:10:57;;;;;;;22.92;4.97;;;18.20;93.50;;;;;;5096499;28;20111;-41
2023/03/12 11:13:23;;;;;;;23.80;4.45;;;18.30;93.60;;;;;;5090575;28;20495;-46
2023/03/12 11:15:51;;;;;;;26.52;5.68;;;18.10;92.70;;;;;;5104041;28;20032;-52
2023/03/12 11:18:34;;;;;;;28.35;5.47;;;17.90;93.60;;;;;;5099272;28;20031;-56
2023/03/12 11:21:09;;;;;;;36.10;6.20;;;17.70;94.10;;;;;;5104731;28;20048;-51
2023/03/12 11:23:38;;;;;;;36.55;7.07;;;17.40;94.20;;;;;;5090632;28;20396;-46
2023/03/12 11:26:22;;;;;;;38.40;6.97;;;16.80;95.00;;;;;;5102313;28;20027;-52
2023/03/12 11:29:05;;;;;;;36.30;7.15;;;16.50;96.70;;;;;;5097438;28;20043;-50
2023/03/12 11:31:37;;;;;;;45.85;7.38;;;16.50;96.60;;;;;;5100866;28;20044;-48
2023/03/12 11:34:07;;;;;;;39.47;7.57;;;17.00;96.80;;;;;;5096443;28;20404;-41
2023/03/12 11:36:45;;;;;;;;;;;17.10;96.20;;;;;;5094239;28;20032;-44
2023/03/12 11:39:14;;;;;;;38.63;6.57;;;16.30;96.10;;;;;;5100451;28;19918;-45
2023/03/12 11:42:02;;;;;;;33.87;5.63;;;15.20;98.40;;;;;;5100503;28;20035;-42
2023/03/12 11:44:54;;;;;;;42.80;6.38;;;14.40;99.90;;;;;;5096457;28;20047;-41
2023/03/12 11:47:44;;;;;;;34.13;5.78;;;14.40;99.90;;;;;;5106947;28;20074;-43
2023/03/12 11:50:28;;;;;;;;;;;15.30;99.90;;;;;;5104866;28;20020;-41
2023/03/12 11:53:13;;;;;;;32.63;5.38;;;16.00;98.90;;;;;;5116684;27;19915;-46
2023/03/12 11:55:48;;;;;;;32.58;5.82;;;16.60;98.30;;;;;;5122350;27;20016;-53
2023/03/12 11:58:28;;;;;;;44.78;6.45;;;16.70;96.60;;;;;;5113660;27;20053;-48
2023/03/12 12:01:22;;;;;;;38.75;6.07;;;15.80;97.30;;;;;;5126009;27;20022;-45
2023/03/12 12:04:19;;;;;;;40.42;6.82;;;15.00;99.10;;;;;;5117317;27;20019;-50
2023/03/12 12:06:59;;;;;;;38.15;6.32;;;14.30;99.90;;;;;;5105856;27;20365;-44
2023/03/12 12:12:11;;;;;;;32.95;5.80;;;14.50;99.90;;;;;;5292974;23;20829;-43
2023/03/12 12:15:23;;;;;;;31.48;5.18;;;15.50;99.90;;;;;;5044048;28;20044;-50
2023/03/12 12:18:14;;;;;;;26.88;4.38;;;16.50;98.80;;;;;;5046017;28;20410;-44
2023/03/12 12:20:47;;;;;;;26.15;5.60;;;16.90;94.80;;;;;;5044932;28;20029;-41
2023/03/12 12:23:12;;;;;;;24.98;4.80;;;16.70;95.40;;;;;;5042674;28;20480;-44
2023/03/12 12:25:45;;;;;;;21.95;4.20;;;16.90;94.90;;;;;;5051140;28;20116;-42
2023/03/12 12:28:33;;;;;;;26.20;3.88;;;16.60;94.50;;;;;;5050184;28;20028;-46
2023/03/12 12:31:26;;;;;;;19.05;3.10;;;16.10;95.40;;;;;;5020441;28;20041;-48
2023/03/12 12:33:55;;;;;;;18.15;3.17;;;15.60;96.20;;;;;;5050415;28;20033;-47
2023/03/12 12:36:25;;;;;;;17.77;2.70;;;15.10;98.50;;;;;;5046402;28;20485;-44
2023/03/12 12:39:04;;;;;;;15.85;2.05;;;14.70;99.40;;;;;;5050795;28;20266;-44
2023/03/12 12:41:36;;;;;;;12.43;1.70;;;14.30;99.90;;;;;;5041309;28;20473;-52
2023/03/12 12:44:09;;;;;;;8.95;1.60;;;14.30;99.90;;;;;;5048900;28;20033;-42
2023/03/12 12:46:38;;;;;;;9.70;1.35;;;14.30;99.90;;;;;;5038348;28;20500;-44
2023/03/12 12:49:07;;;;;;;9.70;1.75;;;14.60;99.90;;;;;;5044980;28;20045;-44
2023/03/12 12:51:39;;;;;;;13.82;2.28;;;14.20;99.90;;;;;;5029045;28;20551;-43
2023/03/12 12:54:27;;;;;;;15.82;2.63;;;13.70;99.90;;;;;;5044430;28;20029;-48